KORL/ORL METAR and TAF weather

Enter ICAO airport designator
Station Type Date Time Source
KORL METAR 2022/08/12 14:53 UTC NOAA

KORL 121453Z 14004KT 10SM FEW021 31/24 A3010 RMK AO2 SLP194 T03060239 50003


Station Type Date Time Source
KORL Decoded METAR 2022/08/12 14:53 UTC NOAA

ORLANDO EXECUTIVE AIRPORT, FL, United States (KORL) 28-33N 081-20W 37M
Aug 12, 2022 - 10:53 AM EDT / 2022.08.12 1453 UTC
Wind: from the SE (140 degrees) at 5 MPH (4 KT):0
Visibility: 10 mile(s):0
Sky conditions: mostly clear
Temperature: 87.1 F (30.6 C)
Heat index: 96.4 F (35.8 C):1
Dew Point: 75.0 F (23.9 C)
Relative Humidity: 67%
Pressure (altimeter): 30.1 in. Hg (1019 hPa)
Pressure tendency: 0.01 inches (0.3 hPa) higher than three hours ago
ob: KORL 121453Z 14004KT 10SM FEW021 31/24 A3010 RMK AO2 SLP194 T03060239 50003
cycle: 15

Station Type Date Time Source
KORL TAF UTC NOAA

Error!

Example: see airport list